Time;durP1;ratioP1;P1;durP2;ratioP2;P2;SDS_P1;SDS_P2;PMS_P1;PMS_P2;Temp;Humidity;BMP_temperature;BMP_pressure;BME280_temperature;BME280_humidity;BME280_pressure;Samples;Min_cycle;Max_cycle;Signal;HPM_P1;HPM_P2
2023/04/20 00:01:47;;;;;;;2.92;1.38;;;6.40;98.30;;;;;;4973402;28;20034;-68
2023/04/20 00:04:14;;;;;;;2.08;1.20;;;6.30;98.40;;;;;;4972956;28;20121;-67
2023/04/20 00:06:42;;;;;;;1.52;0.90;;;6.30;98.60;;;;;;4970759;28;20019;-67
2023/04/20 00:09:09;;;;;;;1.80;1.20;;;6.30;98.50;;;;;;4971864;28;20027;-67
2023/04/20 00:11:35;;;;;;;1.40;0.80;;;6.30;98.60;;;;;;4974341;28;20034;-67
2023/04/20 00:14:01;;;;;;;2.40;1.00;;;6.20;98.60;;;;;;4971483;28;20129;-67
2023/04/20 00:16:27;;;;;;;1.40;1.10;;;6.30;98.40;;;;;;4973204;28;20101;-67
2023/04/20 00:18:53;;;;;;;6.53;1.58;;;6.30;98.50;;;;;;4970755;28;20066;-67
2023/04/20 00:21:23;;;;;;;1.58;0.93;;;6.20;98.50;;;;;;4971303;28;20037;-67
2023/04/20 00:23:49;;;;;;;3.15;1.15;;;6.20;98.60;;;;;;4969943;28;20046;-67
2023/04/20 00:26:16;;;;;;;5.20;1.08;;;6.10;98.70;;;;;;4966864;28;20057;-67
2023/04/20 00:28:42;;;;;;;2.67;1.40;;;6.10;98.70;;;;;;4968290;28;20194;-67
2023/04/20 00:31:08;;;;;;;3.67;1.48;;;6.10;98.80;;;;;;4968945;28;20081;-68
2023/04/20 00:33:34;;;;;;;1.38;1.00;;;6.00;99.10;;;;;;4975881;28;20035;-67
2023/04/20 00:36:00;;;;;;;2.80;1.10;;;6.00;99.10;;;;;;4968478;28;20499;-67
2023/04/20 00:38:29;;;;;;;2.75;1.05;;;5.90;99.40;;;;;;4956276;28;20035;-67
2023/04/20 00:40:55;;;;;;;4.35;1.63;;;5.90;99.70;;;;;;4968487;28;20031;-67
2023/04/20 00:43:21;;;;;;;2.13;0.90;;;5.70;99.90;;;;;;4973565;28;20035;-67
2023/04/20 00:45:47;;;;;;;3.90;1.48;;;5.70;99.90;;;;;;4966805;28;20022;-67
2023/04/20 00:48:13;;;;;;;4.45;1.98;;;5.70;99.90;;;;;;4973724;28;20174;-67
2023/04/20 00:50:39;;;;;;;5.10;1.85;;;5.60;99.90;;;;;;4966687;28;20026;-67
2023/04/20 00:53:07;;;;;;;1.30;1.02;;;5.50;99.90;;;;;;4973242;28;20035;-67
2023/04/20 00:55:35;;;;;;;1.73;1.20;;;5.50;99.90;;;;;;4968130;28;20140;-67
2023/04/20 00:58:01;;;;;;;2.90;1.50;;;5.40;99.90;;;;;;4975418;28;20034;-67
2023/04/20 01:00:27;;;;;;;3.60;1.13;;;5.30;99.90;;;;;;4966397;28;20045;-67
2023/04/20 01:02:53;;;;;;;1.45;0.77;;;5.20;99.90;;;;;;4973385;28;20042;-67
2023/04/20 01:05:20;;;;;;;1.85;1.13;;;5.20;99.90;;;;;;4963876;28;20026;-67
2023/04/20 01:07:46;;;;;;;1.63;0.85;;;5.20;99.90;;;;;;4962399;28;20451;-67
2023/04/20 01:10:12;;;;;;;2.03;1.10;;;5.20;99.90;;;;;;4967939;28;20041;-67
2023/04/20 01:12:37;;;;;;;8.07;1.20;;;5.20;99.90;;;;;;4969211;28;20034;-67
2023/04/20 01:15:05;;;;;;;4.25;1.60;;;5.10;99.90;;;;;;4965329;28;20026;-67
2023/04/20 01:17:32;;;;;;;2.90;1.65;;;5.10;99.90;;;;;;4976760;28;20160;-67
2023/04/20 01:19:59;;;;;;;2.90;1.77;;;5.00;99.90;;;;;;4979128;28;20035;-67
2023/04/20 01:22:25;;;;;;;1.65;1.00;;;5.00;99.90;;;;;;4975806;28;20030;-67
2023/04/20 01:24:51;;;;;;;5.68;1.20;;;5.00;99.90;;;;;;4964682;28;20038;-67
2023/04/20 01:27:18;;;;;;;3.42;1.58;;;4.90;99.90;;;;;;4975218;28;20073;-67
2023/04/20 01:29:44;;;;;;;1.80;1.17;;;5.00;99.90;;;;;;4965925;28;20030;-67
2023/04/20 01:32:11;;;;;;;1.70;1.27;;;5.00;99.90;;;;;;4965194;28;20062;-68
2023/04/20 01:34:37;;;;;;;1.58;0.95;;;4.90;99.90;;;;;;4965340;28;20446;-68
2023/04/20 01:37:07;;;;;;;3.60;1.23;;;5.00;99.90;;;;;;4971542;28;20038;-68
2023/04/20 01:39:37;;;;;;;2.60;1.50;;;5.00;99.90;;;;;;4966222;28;20038;-67
2023/04/20 01:42:04;;;;;;;7.75;1.73;;;5.00;99.90;;;;;;4971314;28;20478;-68
2023/04/20 01:44:30;;;;;;;3.65;1.60;;;4.90;99.90;;;;;;4969882;28;20070;-68
2023/04/20 01:46:56;;;;;;;1.83;1.08;;;4.90;99.90;;;;;;4970531;28;20027;-68
2023/04/20 01:49:22;;;;;;;2.92;1.33;;;4.80;99.90;;;;;;4968260;28;20035;-67
2023/04/20 01:51:48;;;;;;;1.85;1.10;;;4.80;99.90;;;;;;4970090;28;20683;-68
2023/04/20 01:54:14;;;;;;;4.20;1.45;;;4.90;99.90;;;;;;4973864;28;20041;-68
2023/04/20 01:56:40;;;;;;;2.13;1.52;;;4.90;99.90;;;;;;4953202;28;20035;-67
2023/04/20 01:59:06;;;;;;;4.22;2.03;;;5.00;99.90;;;;;;4969200;28;20082;-68
2023/04/20 02:01:31;;;;;;;2.38;1.33;;;5.00;99.90;;;;;;4969893;28;20109;-68
2023/04/20 02:03:57;;;;;;;1.65;1.15;;;5.00;99.90;;;;;;4970035;28;20034;-67
2023/04/20 02:06:23;;;;;;;2.08;0.95;;;4.80;99.90;;;;;;4970832;28;20431;-68
2023/04/20 02:08:49;;;;;;;2.83;1.33;;;4.80;99.90;;;;;;4970446;28;20038;-67
2023/04/20 02:11:14;;;;;;;5.75;1.75;;;4.80;99.90;;;;;;4969691;28;20031;-68
2023/04/20 02:13:40;;;;;;;1.48;0.98;;;4.70;99.90;;;;;;4972314;28;20026;-68
2023/04/20 02:16:06;;;;;;;2.10;1.13;;;4.60;99.90;;;;;;4972426;28;20153;-67
2023/04/20 02:18:32;;;;;;;4.55;1.45;;;4.60;99.90;;;;;;4974178;28;20391;-67
2023/04/20 02:21:00;;;;;;;7.90;1.80;;;4.60;99.90;;;;;;4969753;28;20046;-67
2023/04/20 02:23:25;;;;;;;5.57;1.85;;;4.40;99.90;;;;;;4975501;28;20030;-67
2023/04/20 02:25:52;;;;;;;2.38;1.10;;;4.50;99.90;;;;;;4970760;28;20031;-68
2023/04/20 02:28:17;;;;;;;3.22;1.70;;;4.60;99.90;;;;;;4976179;28;20031;-67
2023/04/20 02:30:43;;;;;;;3.13;2.17;;;4.70;99.90;;;;;;4971867;28;20678;-66
2023/04/20 02:33:09;;;;;;;3.80;1.50;;;4.60;99.90;;;;;;4975652;28;20046;-67
2023/04/20 02:35:35;;;;;;;2.28;1.17;;;4.70;99.90;;;;;;4969677;28;20027;-67
2023/04/20 02:38:01;;;;;;;8.30;1.73;;;4.70;99.90;;;;;;4978565;28;20043;-66
2023/04/20 02:40:27;;;;;;;2.28;1.58;;;4.70;99.90;;;;;;4970829;28;20030;-67
2023/04/20 02:42:52;;;;;;;2.47;1.35;;;4.70;99.90;;;;;;4975999;28;20051;-67
2023/04/20 02:45:18;;;;;;;3.88;1.52;;;4.90;99.90;;;;;;4952706;28;20034;-67
2023/04/20 02:47:45;;;;;;;3.03;1.52;;;5.00;99.90;;;;;;4977463;28;20034;-66
2023/04/20 02:50:11;;;;;;;4.35;1.50;;;5.00;99.90;;;;;;4968561;28;20024;-67
2023/04/20 02:52:37;;;;;;;2.42;1.23;;;5.10;99.90;;;;;;4976160;28;20037;-66
2023/04/20 02:55:03;;;;;;;4.55;1.08;;;5.10;99.90;;;;;;4967672;28;20113;-66
2023/04/20 02:57:29;;;;;;;2.33;1.65;;;5.30;99.90;;;;;;4979260;28;20026;-67
2023/04/20 02:59:55;;;;;;;5.63;1.73;;;5.30;99.90;;;;;;4966936;28;20164;-67
2023/04/20 03:02:21;;;;;;;2.83;1.38;;;5.40;99.90;;;;;;4974119;28;20122;-66
2023/04/20 03:04:46;;;;;;;2.08;1.40;;;5.40;99.90;;;;;;4978035;28;20049;-66
2023/04/20 03:07:14;;;;;;;1.67;1.17;;;5.40;99.90;;;;;;4977000;28;20041;-66
2023/04/20 03:09:40;;;;;;;3.38;1.42;;;5.20;99.90;;;;;;4967476;28;20501;-66
2023/04/20 03:12:06;;;;;;;4.95;1.83;;;5.00;99.90;;;;;;4975009;28;20031;-66
2023/04/20 03:14:31;;;;;;;3.88;2.10;;;5.10;99.90;;;;;;4968412;28;20136;-67
2023/04/20 03:16:57;;;;;;;4.97;1.77;;;5.00;99.90;;;;;;4973626;28;20475;-66
2023/04/20 03:19:24;;;;;;;1.65;1.35;;;5.20;99.90;;;;;;4966187;28;20053;-67
2023/04/20 03:21:50;;;;;;;1.60;1.23;;;5.30;99.90;;;;;;4974139;28;20113;-67
2023/04/20 03:24:16;;;;;;;4.57;2.22;;;5.40;99.90;;;;;;4971301;28;20037;-66
2023/04/20 03:26:42;;;;;;;3.13;1.58;;;5.40;99.90;;;;;;4972618;28;20121;-66
2023/04/20 03:29:08;;;;;;;3.22;1.70;;;5.30;99.90;;;;;;4972492;28;20109;-68
2023/04/20 03:31:33;;;;;;;2.28;1.42;;;5.30;99.90;;;;;;4971701;28;20026;-66
2023/04/20 03:33:59;;;;;;;3.08;1.85;;;5.30;99.90;;;;;;4970321;28;20098;-67
2023/04/20 03:36:27;;;;;;;4.22;1.85;;;5.20;99.90;;;;;;4971566;28;20453;-66
2023/04/20 03:38:52;;;;;;;2.17;1.40;;;5.20;99.90;;;;;;4972163;28;20046;-66
2023/04/20 03:41:18;;;;;;;2.53;1.60;;;5.30;99.90;;;;;;4971572;28;20038;-66
2023/04/20 03:43:44;;;;;;;6.97;1.95;;;5.30;99.90;;;;;;4971618;28;20085;-66
2023/04/20 03:46:10;;;;;;;4.15;1.70;;;5.30;99.90;;;;;;4970880;28;20101;-66
2023/04/20 03:48:35;;;;;;;4.57;1.45;;;5.40;99.90;;;;;;4972925;28;20027;-66
2023/04/20 03:51:01;;;;;;;5.38;1.67;;;5.40;99.90;;;;;;4969496;28;20023;-66
2023/04/20 03:53:28;;;;;;;3.90;1.85;;;5.50;99.90;;;;;;4973479;28;20060;-67
2023/04/20 03:55:54;;;;;;;5.90;2.33;;;5.70;99.90;;;;;;4969233;28;20030;-67
2023/04/20 03:58:20;;;;;;;4.28;1.95;;;5.90;99.90;;;;;;4974420;28;20109;-67
2023/04/20 04:00:47;;;;;;;2.00;1.27;;;5.90;99.90;;;;;;4968688;28;20110;-67
2023/04/20 04:03:13;;;;;;;3.85;1.42;;;5.90;99.90;;;;;;4972026;28;20074;-67
2023/04/20 04:05:40;;;;;;;2.67;1.27;;;5.80;99.90;;;;;;4967854;28;20444;-67
2023/04/20 04:08:06;;;;;;;3.28;1.35;;;5.70;99.90;;;;;;4976375;28;20040;-67
2023/04/20 04:10:32;;;;;;;5.28;1.63;;;5.70;99.90;;;;;;4967294;28;20117;-67
2023/04/20 04:12:58;;;;;;;1.33;1.02;;;5.70;99.90;;;;;;4975942;28;20042;-67
2023/04/20 04:15:23;;;;;;;2.60;1.25;;;5.70;99.90;;;;;;4960795;28;20034;-67
2023/04/20 04:17:49;;;;;;;2.15;1.27;;;5.70;99.90;;;;;;4974248;28;20038;-67
2023/04/20 04:20:15;;;;;;;2.95;1.60;;;5.70;99.90;;;;;;4967249;28;20033;-67
2023/04/20 04:22:42;;;;;;;3.50;2.13;;;5.60;99.90;;;;;;4975919;28;20029;-67
2023/04/20 04:25:09;;;;;;;4.05;2.67;;;5.70;99.90;;;;;;4966133;28;20110;-67
2023/04/20 04:27:38;;;;;;;2.22;1.65;;;5.60;99.90;;;;;;4975720;28;20057;-67
2023/04/20 04:30:06;;;;;;;2.58;1.50;;;5.50;99.90;;;;;;4965489;28;20070;-67
2023/04/20 04:32:33;;;;;;;2.42;1.52;;;5.50;99.90;;;;;;4975545;28;20069;-66
2023/04/20 04:35:00;;;;;;;2.63;1.33;;;5.40;99.90;;;;;;4964195;28;20039;-67
2023/04/20 04:37:26;;;;;;;5.60;1.55;;;5.30;99.90;;;;;;4977046;28;20058;-67
2023/04/20 04:39:52;;;;;;;4.13;1.83;;;5.20;99.90;;;;;;4968000;28;20041;-67
2023/04/20 04:42:18;;;;;;;2.70;1.67;;;5.20;99.90;;;;;;4975184;28;20112;-67
2023/04/20 04:44:44;;;;;;;2.70;1.65;;;5.20;99.90;;;;;;4965919;28;20472;-67
2023/04/20 04:47:10;;;;;;;22.05;1.50;;;5.10;99.90;;;;;;4973767;28;20023;-67
2023/04/20 04:49:36;;;;;;;2.53;1.48;;;5.10;99.90;;;;;;4966521;28;20026;-68
2023/04/20 04:52:02;;;;;;;1.90;1.33;;;5.10;99.90;;;;;;4972561;28;20077;-68
2023/04/20 04:54:28;;;;;;;3.03;1.73;;;5.20;99.90;;;;;;4967813;28;20054;-69
2023/04/20 04:56:54;;;;;;;7.63;2.28;;;5.10;99.90;;;;;;4970869;28;20034;-69
2023/04/20 04:59:20;;;;;;;4.20;2.38;;;5.10;99.90;;;;;;4964521;28;20023;-69
2023/04/20 05:01:46;;;;;;;5.03;2.03;;;5.10;99.90;;;;;;4968623;28;20042;-69
2023/04/20 05:04:12;;;;;;;2.85;1.33;;;5.20;99.90;;;;;;4952678;28;20046;-68
2023/04/20 05:06:37;;;;;;;2.72;1.33;;;5.20;99.90;;;;;;4970799;28;20027;-68
2023/04/20 05:09:03;;;;;;;2.22;1.27;;;5.20;99.90;;;;;;4970449;28;20035;-68
2023/04/20 05:11:30;;;;;;;3.92;1.70;;;5.30;99.90;;;;;;4971470;28;20058;-69
2023/04/20 05:13:56;;;;;;;2.53;1.85;;;5.30;99.90;;;;;;4970660;28;20429;-67
2023/04/20 05:16:22;;;;;;;5.13;2.00;;;5.40;99.90;;;;;;4969549;28;20034;-68
2023/04/20 05:18:47;;;;;;;3.45;2.08;;;5.40;99.90;;;;;;4970183;28;20047;-68
2023/04/20 05:21:13;;;;;;;4.25;1.60;;;5.50;99.90;;;;;;4965444;28;20039;-68
2023/04/20 05:23:39;;;;;;;5.30;1.67;;;5.50;99.90;;;;;;4969842;28;20394;-68
2023/04/20 05:26:05;;;;;;;3.72;1.30;;;5.60;99.90;;;;;;4967856;28;20489;-68
2023/04/20 05:28:33;;;;;;;10.00;2.42;;;5.60;99.90;;;;;;4971648;28;20027;-68
2023/04/20 05:30:59;;;;;;;3.47;1.40;;;5.60;99.90;;;;;;4966795;28;20022;-68
2023/04/20 05:33:25;;;;;;;7.20;2.03;;;5.60;99.90;;;;;;4971897;28;20046;-68
2023/04/20 05:35:56;;;;;;;3.75;2.08;;;5.60;99.90;;;;;;4966718;28;20154;-68
2023/04/20 05:38:23;;;;;;;5.45;1.92;;;5.60;99.90;;;;;;4972217;28;20046;-68
2023/04/20 05:40:48;;;;;;;3.28;1.35;;;5.70;99.90;;;;;;4966401;28;20042;-67
2023/04/20 05:43:16;;;;;;;4.88;1.38;;;5.80;99.90;;;;;;4967210;28;20450;-68
2023/04/20 05:45:42;;;;;;;2.17;1.63;;;5.80;99.90;;;;;;4964766;28;20093;-70
2023/04/20 05:48:07;;;;;;;4.07;2.03;;;5.80;99.90;;;;;;4986551;28;20095;-69
2023/04/20 05:50:33;;;;;;;4.03;1.58;;;5.80;99.90;;;;;;4973976;28;20027;-67
2023/04/20 05:52:59;;;;;;;7.50;2.40;;;5.90;99.90;;;;;;4971227;28;20093;-68
2023/04/20 05:55:25;;;;;;;3.17;1.80;;;6.10;99.90;;;;;;4974419;28;20443;-67
2023/04/20 05:57:51;;;;;;;7.32;1.95;;;6.00;99.90;;;;;;4971536;28;20106;-69
2023/04/20 06:00:18;;;;;;;2.78;1.48;;;5.80;99.90;;;;;;4974058;28;20501;-69
2023/04/20 06:02:44;;;;;;;6.13;2.05;;;5.90;99.90;;;;;;4972527;28;20027;-71
2023/04/20 06:05:10;;;;;;;6.43;1.88;;;6.00;99.90;;;;;;4973593;28;20031;-68
2023/04/20 06:07:36;;;;;;;2.00;1.52;;;6.20;99.90;;;;;;4970358;28;20372;-68
2023/04/20 06:10:03;;;;;;;3.17;1.75;;;6.20;99.90;;;;;;4972530;28;20435;-68
2023/04/20 06:12:30;;;;;;;8.15;2.40;;;6.30;99.90;;;;;;4969513;28;20036;-68
2023/04/20 06:14:57;;;;;;;3.78;1.73;;;6.40;99.90;;;;;;4971913;28;20386;-68
2023/04/20 06:17:22;;;;;;;6.25;2.22;;;6.40;99.90;;;;;;4971515;28;20041;-68
2023/04/20 06:19:49;;;;;;;4.05;2.70;;;6.50;99.90;;;;;;4973344;28;20487;-67
2023/04/20 06:22:15;;;;;;;8.30;2.40;;;6.60;99.90;;;;;;4970193;28;20054;-67
2023/04/20 06:24:41;;;;;;;3.83;1.88;;;6.50;99.90;;;;;;4972675;28;20479;-68
2023/04/20 06:27:10;;;;;;;2.88;2.22;;;6.60;99.90;;;;;;4970337;28;20039;-68
2023/04/20 06:29:37;;;;;;;3.78;1.80;;;6.70;99.90;;;;;;4973280;28;20027;-68
2023/04/20 06:32:04;;;;;;;4.15;1.98;;;6.90;99.90;;;;;;4968073;28;20089;-68
2023/04/20 06:34:29;;;;;;;11.88;2.42;;;7.00;99.90;;;;;;4956259;28;20041;-68
2023/04/20 06:36:55;;;;;;;19.08;2.40;;;7.00;99.90;;;;;;4970628;28;20034;-67
2023/04/20 06:39:21;;;;;;;4.45;1.75;;;7.10;99.90;;;;;;4974147;28;20448;-68
2023/04/20 06:41:47;;;;;;;4.72;2.30;;;7.10;99.90;;;;;;4969884;28;20047;-67
2023/04/20 06:44:12;;;;;;;2.40;1.65;;;7.20;99.90;;;;;;4974826;28;20038;-67
2023/04/20 06:46:38;;;;;;;6.68;1.73;;;7.30;99.90;;;;;;4968459;28;20031;-67
2023/04/20 06:49:04;;;;;;;3.65;1.75;;;7.40;99.90;;;;;;4968693;28;20652;-67
2023/04/20 06:51:31;;;;;;;7.40;2.95;;;7.60;99.90;;;;;;4966073;28;20034;-68
2023/04/20 06:53:57;;;;;;;4.82;2.22;;;7.60;99.90;;;;;;4972401;28;20039;-68
2023/04/20 06:56:23;;;;;;;5.63;1.88;;;7.50;99.90;;;;;;4969610;28;20034;-68
2023/04/20 06:58:49;;;;;;;4.57;2.65;;;7.70;99.90;;;;;;4971938;28;20050;-68
2023/04/20 07:01:15;;;;;;;8.68;2.28;;;7.80;99.90;;;;;;4970070;28;20043;-69
2023/04/20 07:03:40;;;;;;;6.55;1.83;;;7.90;99.90;;;;;;4972194;28;20131;-69
2023/04/20 07:06:06;;;;;;;7.28;2.20;;;7.90;99.90;;;;;;4968443;28;20027;-69
2023/04/20 07:08:32;;;;;;;3.15;1.95;;;7.90;99.90;;;;;;4972592;28;20081;-68
2023/04/20 07:10:58;;;;;;;3.28;1.83;;;8.10;99.90;;;;;;4966183;28;20031;-68
2023/04/20 07:13:24;;;;;;;5.60;2.08;;;7.80;99.90;;;;;;4973005;28;20030;-68
2023/04/20 07:15:51;;;;;;;4.40;2.42;;;7.90;99.90;;;;;;4970873;28;20023;-68
2023/04/20 07:18:16;;;;;;;6.80;3.30;;;8.20;99.90;;;;;;4987745;28;20170;-68
2023/04/20 07:20:42;;;;;;;9.13;2.72;;;8.20;99.90;;;;;;4971581;28;20118;-68
2023/04/20 07:23:08;;;;;;;5.88;1.80;;;8.50;99.90;;;;;;4970928;28;20023;-68
2023/04/20 07:25:34;;;;;;;4.25;1.85;;;8.50;99.90;;;;;;4972257;28;20027;-68
2023/04/20 07:27:59;;;;;;;23.63;3.00;;;8.50;99.90;;;;;;4970722;28;20034;-68
2023/04/20 07:30:25;;;;;;;5.10;2.35;;;8.60;99.90;;;;;;4972677;28;20026;-69
2023/04/20 07:32:51;;;;;;;3.70;1.73;;;8.80;99.90;;;;;;4969616;28;20062;-69
2023/04/20 07:35:17;;;;;;;4.68;1.90;;;8.70;99.90;;;;;;4972266;28;20043;-69
2023/04/20 07:37:42;;;;;;;4.60;1.88;;;8.70;99.90;;;;;;4969961;28;20057;-68
2023/04/20 07:40:09;;;;;;;4.25;2.35;;;8.70;99.90;;;;;;4972007;28;20110;-68
2023/04/20 07:42:36;;;;;;;5.90;2.35;;;8.70;99.90;;;;;;4968313;28;20090;-69
2023/04/20 07:45:03;;;;;;;6.18;2.67;;;8.80;99.90;;;;;;4969196;28;20483;-68
2023/04/20 07:47:29;;;;;;;5.03;2.17;;;8.90;99.90;;;;;;4968928;28;20027;-68
2023/04/20 07:49:56;;;;;;;3.78;2.42;;;9.00;99.90;;;;;;4970813;28;20026;-68
2023/04/20 07:52:23;;;;;;;5.78;1.98;;;9.10;99.90;;;;;;4970806;28;20046;-68
2023/04/20 07:54:49;;;;;;;5.05;2.35;;;9.20;99.90;;;;;;4971331;28;20035;-68
2023/04/20 07:57:15;;;;;;;7.05;2.17;;;9.20;99.90;;;;;;4970480;28;20122;-68
2023/04/20 07:59:41;;;;;;;17.67;2.88;;;9.30;99.90;;;;;;4972457;28;20027;-69
2023/04/20 08:02:07;;;;;;;5.28;1.95;;;9.30;99.90;;;;;;4969151;28;20448;-68
2023/04/20 08:04:36;;;;;;;4.05;1.90;;;9.40;99.90;;;;;;4970899;28;20038;-68
2023/04/20 08:07:01;;;;;;;3.95;2.05;;;9.30;99.90;;;;;;4969093;28;20037;-69
2023/04/20 08:09:28;;;;;;;4.68;2.25;;;9.30;99.90;;;;;;4972248;28;20105;-68
2023/04/20 08:11:55;;;;;;;7.05;2.17;;;9.30;99.90;;;;;;4966265;28;20031;-69
2023/04/20 08:14:21;;;;;;;3.50;2.05;;;9.40;99.90;;;;;;4971511;28;20062;-68
2023/04/20 08:16:47;;;;;;;6.57;2.03;;;9.50;99.90;;;;;;4953457;28;20069;-68
2023/04/20 08:19:13;;;;;;;10.93;3.45;;;9.70;99.90;;;;;;4972045;28;20166;-68
2023/04/20 08:21:39;;;;;;;4.97;3.00;;;9.90;99.90;;;;;;4966755;28;20027;-68
2023/04/20 08:24:06;;;;;;;5.00;2.28;;;9.90;99.90;;;;;;4972876;28;20034;-68
2023/04/20 08:26:33;;;;;;;3.95;2.53;;;10.00;99.90;;;;;;4965617;28;20070;-68
2023/04/20 08:29:00;;;;;;;4.50;1.98;;;10.00;99.90;;;;;;4970942;28;20023;-68
2023/04/20 08:31:26;;;;;;;4.97;2.08;;;9.90;99.90;;;;;;4963776;28;20027;-68
2023/04/20 08:33:52;;;;;;;9.10;2.25;;;9.90;99.90;;;;;;4969319;28;20191;-68
2023/04/20 08:36:18;;;;;;;7.68;2.25;;;9.80;99.90;;;;;;4967974;28;20055;-68
2023/04/20 08:38:44;;;;;;;3.10;1.92;;;10.10;99.90;;;;;;4970927;28;20043;-67
2023/04/20 08:41:12;;;;;;;3.78;2.10;;;10.10;99.90;;;;;;4969194;28;20031;-67
2023/04/20 08:43:38;;;;;;;3.50;2.08;;;10.30;99.90;;;;;;4961593;28;20391;-67
2023/04/20 08:46:04;;;;;;;5.38;2.30;;;10.50;99.90;;;;;;4965232;28;20121;-67
2023/04/20 08:48:36;;;;;;;4.07;2.08;;;10.60;99.90;;;;;;4978984;28;20076;-68
2023/04/20 08:51:03;;;;;;;3.30;1.92;;;10.60;99.90;;;;;;4966554;28;20502;-66
2023/04/20 08:53:32;;;;;;;11.27;2.53;;;10.70;99.90;;;;;;4968361;28;20050;-68
2023/04/20 08:55:58;;;;;;;4.82;2.17;;;10.70;99.90;;;;;;4955203;28;20130;-68
2023/04/20 08:58:31;;;;;;;4.70;2.00;;;10.50;99.90;;;;;;4969574;28;20041;-68
2023/04/20 09:00:59;;;;;;;15.63;1.95;;;10.50;99.90;;;;;;4964994;28;20490;-69
2023/04/20 09:03:37;;;;;;;2.70;1.73;;;10.70;99.90;;;;;;4962151;28;20030;-69
2023/04/20 09:06:15;;;;;;;5.95;2.00;;;10.90;99.90;;;;;;4979647;28;20441;-69
2023/04/20 09:08:42;;;;;;;7.03;1.80;;;11.30;99.90;;;;;;4968094;28;20026;-69
2023/04/20 09:11:24;;;;;;;4.13;1.85;;;11.60;99.90;;;;;;4968984;28;20451;-69
2023/04/20 09:14:11;;;;;;;6.80;2.05;;;11.90;99.60;;;;;;4967318;28;20030;-68
2023/04/20 09:16:51;;;;;;;2.78;1.60;;;11.90;99.10;;;;;;4971161;28;20033;-69
2023/04/20 09:19:28;;;;;;;7.00;2.20;;;12.20;98.50;;;;;;4968551;28;20518;-69
2023/04/20 09:21:57;;;;;;;3.47;2.47;;;12.10;98.10;;;;;;4965389;28;20042;-69
2023/04/20 09:24:30;;;;;;;3.78;1.73;;;11.90;99.00;;;;;;4984257;28;20616;-69
2023/04/20 09:26:56;;;;;;;3.13;1.50;;;12.10;98.50;;;;;;4971947;28;20051;-69
2023/04/20 09:29:26;;;;;;;4.22;1.45;;;12.40;97.70;;;;;;4969890;28;20561;-68
2023/04/20 09:31:53;;;;;;;4.40;2.10;;;12.30;97.80;;;;;;4970044;28;20047;-69
2023/04/20 09:34:20;;;;;;;4.13;1.65;;;12.30;97.90;;;;;;4967844;28;20034;-69
2023/04/20 09:36:53;;;;;;;4.47;2.63;;;12.40;97.90;;;;;;4969196;28;20022;-69
2023/04/20 09:39:21;;;;;;;4.43;2.13;;;12.30;98.30;;;;;;4967945;28;20063;-69
2023/04/20 09:41:49;;;;;;;6.15;2.10;;;12.50;97.90;;;;;;4969802;28;20355;-67
2023/04/20 09:44:16;;;;;;;11.77;2.08;;;12.50;97.80;;;;;;4968960;28;20538;-69
2023/04/20 09:46:43;;;;;;;3.78;2.35;;;12.40;98.30;;;;;;4970759;28;20491;-69
2023/04/20 09:49:13;;;;;;;6.35;1.90;;;12.30;98.00;;;;;;4967879;28;20058;-67
2023/04/20 09:51:44;;;;;;;4.97;2.30;;;12.20;98.80;;;;;;4960037;28;20035;-68
2023/04/20 09:54:11;;;;;;;3.83;1.83;;;12.40;98.90;;;;;;4968550;28;20030;-68
2023/04/20 09:56:38;;;;;;;5.65;2.55;;;12.60;99.10;;;;;;4971016;28;20509;-69
2023/04/20 09:59:05;;;;;;;4.15;2.10;;;12.80;98.90;;;;;;4968289;28;20482;-69
2023/04/20 10:01:33;;;;;;;4.28;1.90;;;12.80;98.90;;;;;;4970928;28;20041;-68
2023/04/20 10:04:01;;;;;;;4.00;2.17;;;12.70;98.80;;;;;;4970548;28;20027;-68
2023/04/20 10:06:31;;;;;;;2.88;1.80;;;12.30;99.00;;;;;;4971319;28;20066;-67
2023/04/20 10:09:01;;;;;;;5.57;1.80;;;11.90;99.50;;;;;;4967652;28;20055;-69
2023/04/20 10:11:42;;;;;;;5.95;2.60;;;11.90;99.70;;;;;;4969030;28;20072;-69
2023/04/20 10:14:24;;;;;;;3.28;1.95;;;12.00;99.60;;;;;;4968614;28;20035;-67
2023/04/20 10:17:08;;;;;;;3.35;1.95;;;12.00;99.40;;;;;;4969819;28;20098;-68
2023/04/20 10:19:44;;;;;;;4.40;1.85;;;11.90;99.70;;;;;;4962644;28;20034;-67
2023/04/20 10:22:12;;;;;;;8.48;2.70;;;11.90;99.70;;;;;;4969784;28;20157;-68
2023/04/20 10:24:39;;;;;;;6.57;2.38;;;11.70;99.70;;;;;;4967394;28;20034;-70
2023/04/20 10:27:18;;;;;;;4.53;2.10;;;11.60;99.90;;;;;;4968967;28;20027;-68
2023/04/20 10:29:44;;;;;;;9.05;1.83;;;11.60;99.90;;;;;;4955380;28;20040;-69
2023/04/20 10:32:29;;;;;;;8.23;2.50;;;11.60;99.90;;;;;;4967877;28;20106;-69
2023/04/20 10:35:07;;;;;;;4.15;2.13;;;11.70;99.90;;;;;;4969287;28;20165;-68
2023/04/20 10:37:34;;;;;;;4.68;2.03;;;11.80;99.90;;;;;;4971954;28;20521;-72
2023/04/20 10:40:00;;;;;;;5.38;2.28;;;11.90;99.90;;;;;;4969222;28;20042;-69
2023/04/20 10:42:28;;;;;;;2.97;2.03;;;12.00;99.90;;;;;;4974073;28;20034;-69
2023/04/20 10:44:54;;;;;;;8.82;2.58;;;12.00;99.90;;;;;;4962361;28;20038;-70
2023/04/20 10:47:31;;;;;;;4.55;1.73;;;12.10;99.90;;;;;;4970195;28;20118;-69
2023/04/20 10:50:14;;;;;;;4.07;2.10;;;12.30;99.90;;;;;;4953990;28;20045;-69
2023/04/20 10:52:42;;;;;;;4.38;2.65;;;12.30;99.90;;;;;;4964329;28;20038;-69
2023/04/20 10:55:23;;;;;;;6.32;2.08;;;12.40;99.90;;;;;;4971329;28;20038;-69
2023/04/20 10:57:49;;;;;;;;;;;12.50;99.90;;;;;;4951293;28;20035;-70
2023/04/20 11:00:21;;;;;;;5.65;2.60;;;12.50;99.90;;;;;;4959098;28;20412;-69
2023/04/20 11:02:48;;;;;;;6.40;2.83;;;12.50;99.70;;;;;;4972271;28;20034;-69
2023/04/20 11:05:14;;;;;;;3.05;1.75;;;12.60;99.30;;;;;;4962089;28;20495;-69
2023/04/20 11:07:59;;;;;;;3.75;2.00;;;12.90;98.80;;;;;;4979212;28;20027;-70
2023/04/20 11:10:41;;;;;;;5.47;2.33;;;13.20;98.40;;;;;;4962520;28;20038;-69
2023/04/20 11:13:22;;;;;;;4.00;2.28;;;13.30;98.30;;;;;;4974917;28;20117;-70
2023/04/20 11:15:48;;;;;;;4.32;2.25;;;13.40;97.80;;;;;;4964851;28;20050;-70
2023/04/20 11:18:13;;;;;;;5.30;2.17;;;13.60;96.70;;;;;;4979314;28;20514;-70
2023/04/20 11:20:54;;;;;;;3.47;1.77;;;13.30;97.20;;;;;;4981728;28;20118;-69
2023/04/20 11:23:21;;;;;;;3.33;1.70;;;13.30;96.90;;;;;;4976017;28;20130;-69
2023/04/20 11:25:57;;;;;;;4.82;1.80;;;13.50;96.80;;;;;;4964637;28;20379;-69
2023/04/20 11:28:24;;;;;;;3.70;1.95;;;13.60;96.60;;;;;;4978417;28;20030;-70
2023/04/20 11:30:51;;;;;;;2.72;1.73;;;13.30;97.10;;;;;;4964777;28;20041;-70
2023/04/20 11:33:30;;;;;;;2.47;1.67;;;13.40;96.80;;;;;;4978649;28;20116;-69
2023/04/20 11:35:57;;;;;;;5.40;2.00;;;13.30;96.90;;;;;;4980014;28;20023;-70
2023/04/20 11:38:34;;;;;;;4.72;1.75;;;13.20;97.20;;;;;;4976850;28;20030;-70
2023/04/20 11:41:06;;;;;;;3.67;1.90;;;12.60;99.00;;;;;;4966198;28;20031;-70
2023/04/20 11:43:34;;;;;;;4.65;1.63;;;12.80;96.30;;;;;;4975291;28;20027;-70
2023/04/20 11:46:01;;;;;;;3.38;1.75;;;12.30;96.90;;;;;;4980474;28;20031;-70
2023/04/20 11:48:30;;;;;;;9.45;2.10;;;12.30;96.50;;;;;;4976101;28;20495;-70
2023/04/20 11:50:57;;;;;;;4.22;2.13;;;12.20;96.10;;;;;;4980066;28;20046;-70
2023/04/20 11:53:22;;;;;;;2.58;1.65;;;12.00;97.30;;;;;;4975837;28;20035;-69
2023/04/20 11:55:48;;;;;;;4.50;1.73;;;11.80;98.30;;;;;;4965227;28;20045;-70
2023/04/20 11:58:14;;;;;;;2.88;1.70;;;11.60;99.50;;;;;;4979275;28;20040;-69
2023/04/20 12:00:40;;;;;;;3.10;1.73;;;11.50;99.30;;;;;;4981441;28;20404;-70
2023/04/20 12:03:06;;;;;;;2.35;1.58;;;11.80;98.40;;;;;;4979466;28;20034;-69
2023/04/20 12:05:32;;;;;;;1.85;1.25;;;12.50;99.10;;;;;;4976711;28;20549;-69
2023/04/20 12:07:58;;;;;;;3.15;1.38;;;12.90;97.20;;;;;;4980650;28;20549;-69
2023/04/20 12:10:24;;;;;;;5.28;2.08;;;13.00;96.70;;;;;;4967154;28;20034;-70
2023/04/20 12:12:49;;;;;;;2.95;1.63;;;13.20;96.10;;;;;;4978217;28;20027;-69
2023/04/20 12:15:15;;;;;;;1.98;1.15;;;13.40;95.30;;;;;;4961783;28;20035;-70
2023/04/20 12:17:41;;;;;;;2.22;1.60;;;13.70;94.30;;;;;;4978182;28;20433;-70
2023/04/20 12:20:10;;;;;;;2.47;1.38;;;13.50;93.90;;;;;;4961547;28;20054;-70
2023/04/20 12:22:37;;;;;;;5.18;1.90;;;13.10;95.00;;;;;;4976880;28;20023;-71
2023/04/20 12:25:04;;;;;;;4.45;1.63;;;12.70;97.10;;;;;;4963153;28;20090;-71
2023/04/20 12:27:30;;;;;;;4.80;2.03;;;12.10;96.60;;;;;;4976420;28;20026;-71
2023/04/20 12:29:56;;;;;;;5.97;2.45;;;11.60;98.50;;;;;;4960440;28;20039;-71
2023/04/20 12:32:21;;;;;;;2.92;1.75;;;11.40;98.50;;;;;;4974563;28;20578;-71
2023/04/20 12:34:47;;;;;;;5.68;2.33;;;11.10;99.90;;;;;;4967678;28;20049;-71
2023/04/20 12:37:13;;;;;;;10.60;5.88;;;11.00;99.70;;;;;;4972564;28;20034;-71
2023/04/20 12:39:39;;;;;;;14.18;7.18;;;10.80;99.50;;;;;;4968667;28;20471;-71
2023/04/20 12:42:05;;;;;;;16.77;6.15;;;10.80;99.90;;;;;;4970565;28;20030;-71
2023/04/20 12:44:31;;;;;;;8.07;3.00;;;10.70;99.90;;;;;;4969558;28;20131;-71
2023/04/20 12:46:56;;;;;;;6.15;2.70;;;10.80;99.90;;;;;;4970097;28;20046;-71
2023/04/20 12:49:22;;;;;;;15.30;3.58;;;10.90;99.90;;;;;;4961502;28;20045;-72
2023/04/20 12:51:48;;;;;;;4.00;2.17;;;11.00;99.90;;;;;;4966759;28;20046;-71
2023/04/20 12:54:14;;;;;;;6.55;2.22;;;11.10;99.90;;;;;;4963031;28;20106;-71